Time;durP1;ratioP1;P1;durP2;ratioP2;P2;SDS_P1;SDS_P2;PMS_P1;PMS_P2;Temp;Humidity;BMP_temperature;BMP_pressure;BME280_temperature;BME280_humidity;BME280_pressure;Samples;Min_cycle;Max_cycle;Signal;HPM_P1;HPM_P2
2022/08/05 00:00:05;;;;;;;2.75;0.90;;;18.40;86.20;;;;;;5070496;28;20029;-69
2022/08/05 00:02:31;;;;;;;3.20;0.80;;;18.40;84.10;;;;;;5070196;28;20043;-68
2022/08/05 00:04:56;;;;;;;3.35;0.82;;;18.40;81.60;;;;;;5052053;28;20032;-68
2022/08/05 00:07:23;;;;;;;2.25;0.70;;;18.40;81.00;;;;;;5070547;28;20517;-69
2022/08/05 00:09:48;;;;;;;3.33;0.77;;;18.40;78.50;;;;;;5070388;28;20056;-68
2022/08/05 00:12:14;;;;;;;3.92;0.77;;;18.40;78.30;;;;;;5070101;28;20052;-68
2022/08/05 00:14:40;;;;;;;3.33;0.70;;;18.40;76.90;;;;;;5070005;28;20032;-68
2022/08/05 00:17:06;;;;;;;2.70;0.85;;;18.40;77.20;;;;;;5069717;28;20501;-68
2022/08/05 00:19:31;;;;;;;4.35;0.80;;;18.40;76.20;;;;;;5051837;28;20072;-68
2022/08/05 00:21:57;;;;;;;3.47;0.70;;;18.40;75.10;;;;;;5070279;28;20028;-70
2022/08/05 00:24:23;;;;;;;4.20;0.70;;;18.40;72.90;;;;;;5070373;28;20097;-69
2022/08/05 00:26:48;;;;;;;5.57;1.02;;;18.40;72.50;;;;;;5069926;28;20036;-69
2022/08/05 00:29:14;;;;;;;5.38;0.55;;;18.40;71.70;;;;;;5051917;28;20027;-69
2022/08/05 00:31:40;;;;;;;4.32;0.80;;;18.30;71.90;;;;;;5069829;28;20029;-69
2022/08/05 00:34:05;;;;;;;4.38;0.93;;;18.30;72.20;;;;;;5069591;28;20040;-69
2022/08/05 00:36:31;;;;;;;3.40;0.70;;;18.20;73.10;;;;;;5069780;28;20037;-69
2022/08/05 00:38:57;;;;;;;4.18;0.90;;;18.20;74.60;;;;;;5069714;28;20033;-69
2022/08/05 00:41:31;;;;;;;3.95;0.68;;;18.20;76.50;;;;;;5069022;28;20036;-69
2022/08/05 00:43:57;;;;;;;3.67;0.70;;;18.10;74.70;;;;;;5069507;28;20032;-68
2022/08/05 00:46:23;;;;;;;5.38;0.90;;;18.10;74.70;;;;;;5069241;28;20148;-69
2022/08/05 00:48:50;;;;;;;5.05;1.00;;;18.10;76.70;;;;;;5069330;28;20032;-68
2022/08/05 00:51:16;;;;;;;7.05;0.80;;;18.00;74.90;;;;;;5069670;28;20147;-69
2022/08/05 00:53:41;;;;;;;5.97;0.90;;;18.00;76.20;;;;;;5069402;28;20108;-68
2022/08/05 00:56:08;;;;;;;2.55;0.68;;;17.90;76.40;;;;;;5068254;28;20493;-68
2022/08/05 00:58:33;;;;;;;5.35;0.90;;;17.90;76.00;;;;;;5068812;28;20086;-68
2022/08/05 01:01:00;;;;;;;7.07;1.25;;;17.90;75.20;;;;;;5068841;28;20029;-69
2022/08/05 01:03:25;;;;;;;6.03;1.20;;;17.90;74.10;;;;;;5069091;28;20039;-68
2022/08/05 01:05:51;;;;;;;5.50;1.00;;;17.90;76.20;;;;;;5068964;28;20054;-67
2022/08/05 01:08:18;;;;;;;3.58;0.90;;;17.90;76.50;;;;;;5060391;28;20076;-67
2022/08/05 01:10:51;;;;;;;4.03;0.70;;;17.80;77.30;;;;;;5067235;28;20048;-68
2022/08/05 01:13:29;;;;;;;4.57;0.95;;;17.80;77.50;;;;;;5068947;28;20024;-68
2022/08/05 01:15:59;;;;;;;3.10;0.75;;;17.80;76.60;;;;;;5068543;28;20056;-68
2022/08/05 01:18:31;;;;;;;4.97;0.90;;;17.80;77.20;;;;;;5068850;28;20032;-67
2022/08/05 01:21:13;;;;;;;3.13;0.80;;;17.80;77.40;;;;;;5069079;28;20043;-67
2022/08/05 01:23:47;;;;;;;3.40;0.80;;;17.80;76.30;;;;;;5068946;28;20032;-67
2022/08/05 01:26:36;;;;;;;4.20;0.70;;;17.80;77.10;;;;;;5068701;28;20048;-68
2022/08/05 01:29:07;;;;;;;2.72;0.93;;;17.80;77.30;;;;;;5068898;28;20540;-68
2022/08/05 01:31:49;;;;;;;4.97;1.00;;;17.80;75.40;;;;;;5068698;28;20074;-67
2022/08/05 01:34:30;;;;;;;4.10;0.70;;;17.70;75.70;;;;;;5064509;28;20033;-67
2022/08/05 01:37:23;;;;;;;4.47;0.65;;;17.80;75.00;;;;;;5035757;28;20123;-68
2022/08/05 01:39:53;;;;;;;4.30;0.70;;;17.70;76.00;;;;;;5068351;28;20028;-67
2022/08/05 01:42:21;;;;;;;3.67;0.70;;;17.80;75.30;;;;;;5050419;28;20044;-67
2022/08/05 01:44:48;;;;;;;4.68;0.80;;;17.70;74.30;;;;;;5050013;28;20494;-68
2022/08/05 01:47:19;;;;;;;5.00;0.90;;;17.80;75.10;;;;;;5068213;28;20029;-68
2022/08/05 01:49:49;;;;;;;1.83;0.70;;;17.70;74.20;;;;;;5068733;28;20016;-68
2022/08/05 01:52:17;;;;;;;3.70;0.80;;;17.70;75.80;;;;;;5067038;28;20039;-69
2022/08/05 01:54:51;;;;;;;4.18;0.80;;;17.70;74.50;;;;;;5050455;28;20076;-68
2022/08/05 01:57:30;;;;;;;5.53;1.00;;;17.60;76.20;;;;;;5068368;28;20028;-68
2022/08/05 01:59:59;;;;;;;3.53;0.77;;;17.60;75.50;;;;;;5068680;28;20032;-69
2022/08/05 02:02:27;;;;;;;4.50;0.80;;;17.60;75.70;;;;;;5068749;28;20264;-68
2022/08/05 02:05:00;;;;;;;3.83;0.75;;;17.50;75.80;;;;;;5068291;28;20062;-68
2022/08/05 02:07:26;;;;;;;3.20;0.60;;;17.50;78.80;;;;;;5068357;28;20025;-70
2022/08/05 02:09:52;;;;;;;4.15;0.90;;;17.50;78.60;;;;;;5068559;28;20040;-68
2022/08/05 02:12:29;;;;;;;5.53;1.05;;;17.40;80.00;;;;;;5050039;28;20029;-67
2022/08/05 02:15:26;;;;;;;5.68;0.88;;;17.40;82.70;;;;;;5068425;28;20040;-67
2022/08/05 02:18:03;;;;;;;3.05;0.80;;;17.40;80.90;;;;;;5068408;28;20124;-68
2022/08/05 02:20:38;;;;;;;5.72;0.80;;;17.30;81.30;;;;;;5068361;28;20040;-68
2022/08/05 02:23:09;;;;;;;5.47;0.85;;;17.30;82.70;;;;;;5050351;28;20102;-68
2022/08/05 02:25:37;;;;;;;5.15;0.90;;;17.30;79.70;;;;;;5068392;28;20040;-68
2022/08/05 02:28:05;;;;;;;3.33;0.80;;;17.20;81.00;;;;;;5067983;28;20025;-68
2022/08/05 02:30:38;;;;;;;4.80;0.95;;;17.20;81.00;;;;;;5068244;28;20036;-68
2022/08/05 02:33:07;;;;;;;2.88;0.70;;;17.20;80.20;;;;;;5068496;28;20059;-68
2022/08/05 02:35:34;;;;;;;4.95;0.80;;;17.20;80.60;;;;;;5068126;28;20036;-69
2022/08/05 02:38:01;;;;;;;5.00;0.80;;;17.20;80.50;;;;;;5050370;28;20474;-69
2022/08/05 02:40:27;;;;;;;4.00;0.98;;;17.20;79.90;;;;;;5068108;28;20064;-68
2022/08/05 02:42:55;;;;;;;3.85;0.65;;;17.20;81.20;;;;;;5067935;28;20116;-66
2022/08/05 02:45:22;;;;;;;3.67;0.80;;;17.10;82.60;;;;;;5067936;28;20024;-69
2022/08/05 02:47:51;;;;;;;5.00;0.77;;;17.10;80.20;;;;;;5068311;28;20036;-68
2022/08/05 02:50:17;;;;;;;4.07;0.50;;;17.10;80.30;;;;;;5068088;28;20502;-68
2022/08/05 02:52:45;;;;;;;4.20;0.90;;;17.10;79.30;;;;;;5067986;28;20109;-69
2022/08/05 02:55:11;;;;;;;3.72;1.00;;;17.10;78.90;;;;;;5067872;28;20036;-68
2022/08/05 02:57:38;;;;;;;4.13;0.50;;;17.10;77.60;;;;;;5049940;28;20031;-68
2022/08/05 03:00:06;;;;;;;3.80;0.90;;;17.10;79.40;;;;;;5067995;28;20040;-68
2022/08/05 03:02:35;;;;;;;3.88;1.00;;;17.00;78.60;;;;;;5068115;28;20051;-68
2022/08/05 03:05:03;;;;;;;3.38;0.70;;;17.00;81.30;;;;;;5071400;28;20158;-67
2022/08/05 03:07:29;;;;;;;2.55;0.63;;;17.00;81.40;;;;;;5071502;28;20830;-67
2022/08/05 03:09:56;;;;;;;3.53;0.85;;;17.00;82.70;;;;;;5071357;28;20513;-69
2022/08/05 03:12:30;;;;;;;3.67;0.70;;;16.90;80.40;;;;;;5071193;28;20040;-70
2022/08/05 03:14:56;;;;;;;3.17;0.70;;;16.90;80.90;;;;;;5071376;28;20040;-69
2022/08/05 03:17:21;;;;;;;5.07;0.90;;;16.90;79.70;;;;;;5071345;28;20116;-67
2022/08/05 03:19:47;;;;;;;4.90;0.90;;;16.80;80.30;;;;;;5071258;28;20090;-68
2022/08/05 03:22:13;;;;;;;3.88;0.70;;;16.80;79.70;;;;;;5053215;28;20036;-68
2022/08/05 03:24:43;;;;;;;1.77;0.68;;;16.80;79.40;;;;;;5071196;28;20120;-69
2022/08/05 03:27:09;;;;;;;2.35;0.57;;;16.70;79.80;;;;;;5071219;28;20111;-70
2022/08/05 03:29:35;;;;;;;3.88;0.80;;;16.70;80.70;;;;;;5070749;28;20035;-67
2022/08/05 03:32:03;;;;;;;4.90;0.77;;;16.70;82.50;;;;;;5070832;28;20032;-68
2022/08/05 03:34:29;;;;;;;4.32;0.80;;;16.70;81.00;;;;;;5068446;28;20028;-69
2022/08/05 03:36:55;;;;;;;5.22;0.80;;;16.70;78.60;;;;;;5050694;28;20564;-69
2022/08/05 03:39:21;;;;;;;3.38;0.82;;;16.60;79.10;;;;;;5032489;28;20037;-68
2022/08/05 03:41:47;;;;;;;2.72;0.70;;;16.60;79.90;;;;;;5050370;28;20029;-69
2022/08/05 03:44:12;;;;;;;3.45;0.60;;;16.60;80.50;;;;;;5032927;28;20048;-67
2022/08/05 03:46:38;;;;;;;3.78;0.90;;;16.50;81.20;;;;;;5050795;28;20033;-67
2022/08/05 03:49:04;;;;;;;3.40;0.57;;;16.50;82.10;;;;;;5050751;28;20029;-67
2022/08/05 03:51:42;;;;;;;4.32;0.60;;;16.50;82.70;;;;;;5050484;28;20040;-68
2022/08/05 03:54:17;;;;;;;1.92;0.60;;;16.40;84.10;;;;;;5051000;28;20118;-69
2022/08/05 03:56:45;;;;;;;2.92;0.70;;;16.40;85.00;;;;;;5068588;28;20040;-68
2022/08/05 03:59:22;;;;;;;2.03;0.60;;;16.40;85.60;;;;;;5070359;28;20029;-70
2022/08/05 04:01:50;;;;;;;4.45;1.13;;;16.30;85.90;;;;;;5052070;28;20035;-68
2022/08/05 04:04:18;;;;;;;2.30;0.73;;;16.30;86.70;;;;;;5063813;28;20032;-68
2022/08/05 04:06:45;;;;;;;4.00;0.93;;;16.30;88.10;;;;;;5049503;28;20075;-67
2022/08/05 04:09:12;;;;;;;2.20;0.60;;;16.30;87.80;;;;;;5050185;28;20029;-68
2022/08/05 04:11:38;;;;;;;2.92;0.80;;;16.20;88.40;;;;;;5050081;28;20401;-67
2022/08/05 04:14:05;;;;;;;4.18;0.80;;;16.20;88.90;;;;;;5049874;28;20044;-68
2022/08/05 04:16:34;;;;;;;3.20;0.82;;;16.20;90.20;;;;;;5049453;28;20131;-68
2022/08/05 04:19:00;;;;;;;2.53;0.65;;;16.20;90.00;;;;;;5049895;28;20441;-67
2022/08/05 04:21:26;;;;;;;3.63;0.70;;;16.20;90.10;;;;;;5050155;28;20056;-67
2022/08/05 04:23:52;;;;;;;3.90;0.85;;;16.10;90.60;;;;;;5031896;28;20123;-67
2022/08/05 04:26:18;;;;;;;2.83;0.80;;;16.10;90.70;;;;;;5049980;28;20553;-66
2022/08/05 04:28:44;;;;;;;4.15;0.90;;;16.10;91.10;;;;;;5049933;28;20025;-67
2022/08/05 04:31:10;;;;;;;3.30;0.70;;;16.00;91.20;;;;;;5031654;28;20028;-69
2022/08/05 04:33:36;;;;;;;3.78;0.98;;;16.00;91.40;;;;;;5031748;28;20033;-67
2022/08/05 04:36:02;;;;;;;3.40;0.70;;;16.00;91.30;;;;;;5049461;28;20029;-67
2022/08/05 04:38:27;;;;;;;5.28;0.90;;;15.90;91.60;;;;;;5049529;28;20582;-67
2022/08/05 04:40:53;;;;;;;3.05;0.75;;;15.90;91.60;;;;;;5049819;28;20048;-67
2022/08/05 04:43:19;;;;;;;4.88;0.80;;;15.90;91.40;;;;;;5031667;28;20033;-67
2022/08/05 04:45:45;;;;;;;3.83;0.90;;;15.90;91.60;;;;;;5049468;28;20538;-66
2022/08/05 04:48:13;;;;;;;4.10;0.60;;;15.90;92.10;;;;;;5049366;28;20032;-68
2022/08/05 04:50:39;;;;;;;6.10;0.88;;;15.90;92.30;;;;;;5049566;28;20076;-67
2022/08/05 04:53:05;;;;;;;4.13;0.80;;;15.90;92.20;;;;;;5031375;28;20068;-67
2022/08/05 04:55:30;;;;;;;3.15;0.70;;;15.80;92.30;;;;;;5049276;28;20102;-67
2022/08/05 04:57:56;;;;;;;2.17;0.52;;;15.80;92.90;;;;;;5049182;28;20040;-68
2022/08/05 05:00:22;;;;;;;4.80;0.70;;;15.80;93.10;;;;;;5031136;28;20031;-67
2022/08/05 05:02:47;;;;;;;2.60;0.60;;;15.80;93.00;;;;;;5049207;28;20035;-67
2022/08/05 05:05:13;;;;;;;2.80;0.70;;;15.80;93.40;;;;;;5049436;28;20039;-67
2022/08/05 05:07:39;;;;;;;2.97;0.90;;;15.80;92.50;;;;;;5048937;28;20029;-67
2022/08/05 05:10:05;;;;;;;3.15;0.73;;;15.80;92.50;;;;;;5049166;28;20032;-68
2022/08/05 05:12:31;;;;;;;3.78;0.88;;;15.80;92.70;;;;;;5049085;28;20095;-69
2022/08/05 05:14:57;;;;;;;3.00;0.80;;;15.80;92.60;;;;;;5049119;28;20029;-68
2022/08/05 05:17:22;;;;;;;3.05;0.80;;;15.80;92.30;;;;;;5048617;28;20063;-67
2022/08/05 05:19:48;;;;;;;5.22;1.00;;;15.90;93.00;;;;;;5030951;28;20032;-68
2022/08/05 05:22:14;;;;;;;7.68;1.10;;;15.90;93.10;;;;;;5047278;28;20036;-67
2022/08/05 05:24:39;;;;;;;3.25;0.70;;;15.90;92.90;;;;;;5030972;28;20107;-68
2022/08/05 05:27:05;;;;;;;4.15;0.80;;;15.90;92.50;;;;;;5048499;28;20164;-68
2022/08/05 05:29:31;;;;;;;3.97;0.80;;;15.90;91.80;;;;;;5055680;28;20040;-67
2022/08/05 05:31:56;;;;;;;2.58;0.80;;;15.90;91.80;;;;;;5050540;28;20485;-67
2022/08/05 05:34:22;;;;;;;3.10;0.88;;;15.90;92.20;;;;;;5068638;28;20084;-68
2022/08/05 05:36:48;;;;;;;2.47;0.80;;;15.90;91.90;;;;;;5050376;28;20039;-67
2022/08/05 05:39:13;;;;;;;4.35;1.02;;;15.90;91.90;;;;;;5068391;28;20040;-67
2022/08/05 05:41:39;;;;;;;3.47;1.00;;;16.00;92.00;;;;;;5068641;28;20119;-67
2022/08/05 05:44:05;;;;;;;4.05;0.90;;;16.00;92.40;;;;;;5050543;28;20028;-67
2022/08/05 05:46:30;;;;;;;2.85;0.70;;;16.00;92.50;;;;;;5068345;28;20045;-67
2022/08/05 05:48:56;;;;;;;3.67;0.90;;;16.00;91.90;;;;;;5068476;28;20444;-67
2022/08/05 05:51:23;;;;;;;2.67;1.00;;;16.00;92.00;;;;;;5068486;28;20039;-67
2022/08/05 05:53:50;;;;;;;2.65;0.98;;;16.00;91.70;;;;;;5068562;28;20467;-66
2022/08/05 05:56:16;;;;;;;2.33;0.65;;;16.00;91.90;;;;;;5068318;28;20024;-67
2022/08/05 05:58:41;;;;;;;3.50;0.98;;;16.00;91.40;;;;;;5067706;28;20044;-66
2022/08/05 06:01:07;;;;;;;6.03;1.30;;;16.00;91.20;;;;;;5064785;28;20367;-68
2022/08/05 06:03:33;;;;;;;3.05;0.88;;;16.00;91.40;;;;;;5067927;28;20050;-68
2022/08/05 06:05:58;;;;;;;2.85;0.88;;;16.00;91.50;;;;;;5068176;28;20028;-67
2022/08/05 06:08:24;;;;;;;4.40;1.15;;;16.00;91.10;;;;;;5050384;28;20143;-67
2022/08/05 06:10:49;;;;;;;5.38;1.05;;;16.10;91.00;;;;;;5068220;28;20107;-67
2022/08/05 06:13:15;;;;;;;4.93;1.00;;;16.10;90.10;;;;;;5050047;28;20119;-67
2022/08/05 06:15:41;;;;;;;3.70;1.00;;;16.20;90.20;;;;;;5067998;28;20080;-67
2022/08/05 06:18:06;;;;;;;5.22;0.95;;;16.10;89.90;;;;;;5068367;28;20098;-67
2022/08/05 06:20:32;;;;;;;3.63;0.90;;;16.20;89.30;;;;;;5068182;28;20043;-67
2022/08/05 06:22:58;;;;;;;7.30;1.20;;;16.20;89.20;;;;;;5050192;28;20499;-67
2022/08/05 06:25:24;;;;;;;3.50;0.90;;;16.20;90.00;;;;;;5050084;28;20120;-67
2022/08/05 06:27:49;;;;;;;3.65;0.90;;;16.20;90.00;;;;;;5050138;28;20119;-69
2022/08/05 06:30:15;;;;;;;3.75;1.00;;;16.20;89.20;;;;;;5068245;28;20102;-68
2022/08/05 06:32:42;;;;;;;4.63;1.20;;;16.20;89.40;;;;;;5067994;28;20490;-68
2022/08/05 06:35:08;;;;;;;5.03;0.90;;;16.30;88.10;;;;;;5067945;28;20036;-68
2022/08/05 06:37:34;;;;;;;5.60;1.10;;;16.30;87.10;;;;;;5049982;28;20112;-67
2022/08/05 06:39:59;;;;;;;4.82;1.05;;;16.40;87.20;;;;;;5072021;28;20440;-67
2022/08/05 06:42:25;;;;;;;4.00;1.17;;;16.30;86.60;;;;;;5071851;28;20025;-67
2022/08/05 06:44:51;;;;;;;3.22;1.02;;;16.30;87.30;;;;;;5071936;28;20035;-67
2022/08/05 06:47:17;;;;;;;5.03;0.93;;;16.40;86.10;;;;;;5071690;28;20039;-68
2022/08/05 06:49:42;;;;;;;2.60;0.63;;;16.40;85.60;;;;;;5053737;28;20127;-67
2022/08/05 06:52:08;;;;;;;3.63;0.90;;;16.50;84.80;;;;;;5072022;28;20036;-68
2022/08/05 06:54:33;;;;;;;4.35;1.00;;;16.50;86.10;;;;;;5071912;28;20531;-70
2022/08/05 06:56:59;;;;;;;3.75;0.90;;;16.60;83.70;;;;;;5071650;28;20090;-67
2022/08/05 06:59:25;;;;;;;4.20;0.85;;;16.70;83.90;;;;;;5071663;28;20043;-68
2022/08/05 07:01:50;;;;;;;2.40;0.70;;;16.90;81.90;;;;;;5071608;28;20454;-69
2022/08/05 07:04:16;;;;;;;4.80;0.85;;;17.00;80.70;;;;;;5071568;28;20029;-68
2022/08/05 07:06:42;;;;;;;3.75;0.77;;;17.10;78.90;;;;;;5071668;28;20433;-69
2022/08/05 07:09:07;;;;;;;3.10;0.70;;;17.10;76.70;;;;;;5071394;28;20516;-68
2022/08/05 07:11:34;;;;;;;4.95;0.85;;;17.30;77.40;;;;;;5071350;28;20130;-68
2022/08/05 07:16:49;;;;;;;5.03;0.75;;;17.40;74.90;;;;;;5071263;28;20195;-68
2022/08/05 07:19:20;;;;;;;3.95;1.00;;;17.60;74.20;;;;;;5052543;28;20036;-68
2022/08/05 07:21:48;;;;;;;5.13;1.02;;;17.80;74.40;;;;;;5071206;28;20058;-68
2022/08/05 07:24:15;;;;;;;3.22;1.08;;;17.90;72.60;;;;;;5071143;28;20036;-69
2022/08/05 07:26:41;;;;;;;4.25;1.00;;;18.00;71.10;;;;;;5052896;28;20057;-67
2022/08/05 07:29:07;;;;;;;2.85;0.82;;;18.00;69.30;;;;;;5070888;28;20044;-68
2022/08/05 07:31:33;;;;;;;5.45;0.85;;;18.10;67.30;;;;;;5071028;28;20479;-69
2022/08/05 07:33:59;;;;;;;3.88;0.70;;;18.20;68.10;;;;;;5070777;28;20631;-67
2022/08/05 07:36:26;;;;;;;4.13;0.70;;;18.30;67.20;;;;;;5070944;28;20065;-68
2022/08/05 07:38:51;;;;;;;4.72;0.90;;;18.30;65.70;;;;;;5070830;28;20040;-68
2022/08/05 07:41:19;;;;;;;3.80;0.80;;;18.30;64.60;;;;;;5070832;28;20668;-68
2022/08/05 07:43:45;;;;;;;2.47;1.08;;;18.40;64.40;;;;;;5070869;28;20028;-67
2022/08/05 07:46:11;;;;;;;5.20;0.77;;;18.40;62.90;;;;;;5052699;28;20039;-69
2022/08/05 07:48:37;;;;;;;5.18;0.93;;;18.30;63.80;;;;;;5052530;28;20079;-68
2022/08/05 07:51:02;;;;;;;2.58;0.77;;;18.50;63.70;;;;;;5052704;28;20394;-68
2022/08/05 07:53:28;;;;;;;5.97;0.82;;;18.60;64.80;;;;;;5070696;28;20394;-67
2022/08/05 07:55:54;;;;;;;5.07;0.80;;;18.60;63.40;;;;;;5069563;28;20540;-67
2022/08/05 07:58:19;;;;;;;4.90;0.80;;;18.70;61.70;;;;;;5070647;28;20051;-67
2022/08/05 08:00:45;;;;;;;3.50;0.52;;;18.80;62.80;;;;;;5052301;28;20056;-67
2022/08/05 08:03:12;;;;;;;3.70;0.70;;;18.70;61.50;;;;;;5070442;28;20029;-68
2022/08/05 08:05:42;;;;;;;4.70;2.10;;;18.70;60.60;;;;;;5069146;28;20032;-69
2022/08/05 08:08:11;;;;;;;5.70;1.33;;;18.70;60.80;;;;;;5070574;28;20032;-67
2022/08/05 08:10:37;;;;;;;2.83;0.75;;;18.70;61.80;;;;;;5070236;28;20068;-67
2022/08/05 08:13:03;;;;;;;5.15;0.93;;;18.70;60.60;;;;;;5052504;28;20533;-66
2022/08/05 08:15:30;;;;;;;3.72;0.55;;;18.70;60.30;;;;;;5069792;28;20113;-67
2022/08/05 08:17:55;;;;;;;3.95;0.70;;;18.80;59.30;;;;;;5070164;28;20037;-67
2022/08/05 08:20:22;;;;;;;2.97;0.57;;;18.80;59.70;;;;;;5051968;28;20046;-67
2022/08/05 08:22:52;;;;;;;4.63;0.57;;;18.80;59.20;;;;;;5070011;28;20033;-67
2022/08/05 08:25:19;;;;;;;3.72;0.70;;;18.90;60.00;;;;;;5069818;28;20518;-69
2022/08/05 08:27:44;;;;;;;4.13;1.05;;;18.90;59.20;;;;;;5070304;28;20024;-68
2022/08/05 08:30:11;;;;;;;2.88;0.50;;;19.10;58.40;;;;;;5070040;28;20107;-68
2022/08/05 08:32:36;;;;;;;1.70;0.40;;;19.20;57.90;;;;;;5051914;28;20482;-68
2022/08/05 08:35:03;;;;;;;4.70;0.60;;;19.30;56.90;;;;;;5069590;28;20030;-67
2022/08/05 08:37:28;;;;;;;5.75;0.70;;;19.40;56.30;;;;;;5069696;28;20036;-66
2022/08/05 08:39:54;;;;;;;4.65;0.80;;;19.40;55.80;;;;;;5051866;28;20035;-68
2022/08/05 08:42:21;;;;;;;4.15;0.80;;;19.50;55.40;;;;;;5069568;28;20489;-66
2022/08/05 08:44:47;;;;;;;3.40;0.80;;;19.60;55.10;;;;;;5051296;28;20040;-67
2022/08/05 08:47:14;;;;;;;4.25;0.75;;;19.60;55.00;;;;;;5051411;28;20033;-67
2022/08/05 08:49:44;;;;;;;3.47;0.50;;;19.70;55.20;;;;;;5069414;28;20046;-68
2022/08/05 08:52:18;;;;;;;;;;;19.70;53.70;;;;;;5051672;28;20051;-67
2022/08/05 08:54:46;;;;;;;3.65;0.60;;;19.70;53.40;;;;;;5069576;28;19982;-67
2022/08/05 08:57:12;;;;;;;4.93;0.70;;;19.80;53.50;;;;;;5051261;28;20500;-67
2022/08/05 08:59:38;;;;;;;5.22;0.60;;;19.80;53.20;;;;;;5069036;28;20097;-69
2022/08/05 09:02:05;;;;;;;7.55;0.88;;;19.90;51.60;;;;;;5068758;28;20044;-67
2022/08/05 09:04:36;;;;;;;3.55;0.75;;;19.90;53.30;;;;;;5069128;28;20031;-66
2022/08/05 09:07:06;;;;;;;2.88;0.70;;;20.10;52.90;;;;;;5069352;28;20093;-67
2022/08/05 09:09:33;;;;;;;4.90;0.80;;;20.10;51.30;;;;;;5069189;28;20081;-67
2022/08/05 09:11:59;;;;;;;4.97;0.73;;;20.10;51.90;;;;;;5068922;28;20031;-68
2022/08/05 09:14:25;;;;;;;3.40;0.57;;;20.20;50.70;;;;;;5068256;28;20028;-68
2022/08/05 09:16:51;;;;;;;4.78;0.80;;;20.30;50.40;;;;;;5050801;28;20513;-66
2022/08/05 09:19:17;;;;;;;4.82;0.70;;;20.40;50.10;;;;;;5051059;28;20426;-67
2022/08/05 09:21:42;;;;;;;3.60;0.57;;;20.40;50.00;;;;;;5069071;28;20024;-67
2022/08/05 09:24:09;;;;;;;2.83;0.60;;;20.50;50.40;;;;;;5068883;28;20042;-68
2022/08/05 09:26:35;;;;;;;4.53;0.60;;;20.50;49.90;;;;;;5068847;28;20433;-67
2022/08/05 09:29:07;;;;;;;4.10;0.80;;;20.50;49.30;;;;;;5068639;28;20056;-68
2022/08/05 09:31:33;;;;;;;3.83;0.77;;;20.60;49.60;;;;;;5068762;28;20029;-67
2022/08/05 09:34:02;;;;;;;4.43;0.55;;;20.60;48.90;;;;;;5068682;28;20033;-69
2022/08/05 09:36:45;;;;;;;2.78;0.65;;;20.70;48.80;;;;;;5050707;28;20131;-68
2022/08/05 09:39:12;;;;;;;3.55;0.70;;;20.70;48.80;;;;;;5068816;28;20050;-67
2022/08/05 09:41:59;;;;;;;3.80;0.65;;;20.80;48.20;;;;;;5068593;28;20048;-67
2022/08/05 09:44:37;;;;;;;4.22;0.55;;;20.80;48.40;;;;;;5068401;28;20053;-68
2022/08/05 09:47:14;;;;;;;4.70;0.80;;;20.80;48.50;;;;;;5068766;28;20036;-67
2022/08/05 09:49:41;;;;;;;4.05;0.68;;;20.80;48.50;;;;;;5068596;28;20253;-67
2022/08/05 09:52:23;;;;;;;4.30;0.85;;;20.80;47.80;;;;;;5050514;28;20127;-68
2022/08/05 09:55:02;;;;;;;3.00;0.65;;;20.90;47.10;;;;;;5050586;28;20087;-67
2022/08/05 09:57:48;;;;;;;3.60;0.80;;;21.00;47.50;;;;;;5049479;28;20032;-67
2022/08/05 10:00:23;;;;;;;4.78;0.70;;;21.00;47.30;;;;;;5068166;28;20063;-68
2022/08/05 10:02:55;;;;;;;7.15;0.95;;;21.20;47.50;;;;;;5050268;28;20024;-68
2022/08/05 10:05:24;;;;;;;2.95;0.68;;;21.30;47.00;;;;;;5068793;28;20040;-67
2022/08/05 10:08:03;;;;;;;4.70;0.70;;;21.20;44.90;;;;;;5068244;28;20035;-69
2022/08/05 10:10:44;;;;;;;3.53;0.73;;;21.30;46.10;;;;;;5068618;28;20029;-68
2022/08/05 10:13:10;;;;;;;5.68;0.93;;;21.30;46.60;;;;;;5051140;28;20028;-69
2022/08/05 10:15:38;;;;;;;3.33;0.70;;;21.40;47.00;;;;;;5053705;28;20063;-68
2022/08/05 10:18:26;;;;;;;2.97;0.80;;;21.40;46.80;;;;;;5071206;28;20032;-69
2022/08/05 10:21:05;;;;;;;5.07;0.70;;;21.50;45.30;;;;;;5070971;28;20481;-68
2022/08/05 10:23:33;;;;;;;4.78;0.70;;;21.60;46.00;;;;;;5052923;28;20059;-68
2022/08/05 10:26:06;;;;;;;4.85;0.90;;;21.70;47.00;;;;;;5070546;28;20123;-70
2022/08/05 10:28:31;;;;;;;2.58;0.60;;;21.90;45.50;;;;;;5053008;28;20115;-68
2022/08/05 10:30:58;;;;;;;6.97;0.93;;;22.00;45.90;;;;;;5071004;28;20111;-67
2022/08/05 10:33:28;;;;;;;3.58;0.52;;;22.10;44.90;;;;;;5071030;28;20032;-69
2022/08/05 10:35:55;;;;;;;5.20;0.95;;;22.20;44.60;;;;;;5071032;28;20075;-67
2022/08/05 10:38:23;;;;;;;3.95;0.98;;;22.40;45.50;;;;;;5052685;28;20033;-66
2022/08/05 10:40:50;;;;;;;4.70;0.88;;;22.40;44.90;;;;;;5052533;28;20584;-68
2022/08/05 10:43:39;;;;;;;4.15;0.90;;;22.40;45.40;;;;;;5070882;28;20048;-67
2022/08/05 10:46:07;;;;;;;4.03;0.67;;;22.50;44.70;;;;;;5070677;28;20044;-67
2022/08/05 10:48:47;;;;;;;3.00;0.88;;;22.50;43.70;;;;;;5070592;28;20061;-67
2022/08/05 10:51:20;;;;;;;5.10;1.00;;;22.70;43.50;;;;;;5070752;28;20043;-68
2022/08/05 10:53:49;;;;;;;5.55;1.00;;;22.80;44.00;;;;;;5070465;28;20497;-67
2022/08/05 10:56:20;;;;;;;4.05;0.98;;;22.80;44.50;;;;;;5070170;28;20123;-68
2022/08/05 10:59:04;;;;;;;4.07;1.10;;;22.80;43.80;;;;;;5052415;28;20484;-67
2022/08/05 11:01:35;;;;;;;6.30;1.00;;;23.00;44.60;;;;;;5052183;28;20025;-67
2022/08/05 11:04:10;;;;;;;5.07;0.85;;;23.10;42.90;;;;;;5070318;28;20075;-67
2022/08/05 11:07:03;;;;;;;3.90;0.75;;;23.20;42.70;;;;;;5070526;28;20028;-67
2022/08/05 11:09:50;;;;;;;3.92;0.80;;;23.40;41.60;;;;;;5051928;28;20033;-67
2022/08/05 11:12:37;;;;;;;3.45;0.65;;;23.60;40.50;;;;;;5051975;28;20032;-67
2022/08/05 11:17:48;;;;;;;3.05;0.73;;;24.20;40.50;;;;;;5096152;27;1553859;-67
2022/08/05 11:20:38;;;;;;;2.30;0.57;;;24.10;39.30;;;;;;5125743;28;20477;-67
2022/08/05 11:23:35;;;;;;;3.63;0.80;;;24.00;39.80;;;;;;5126901;27;20110;-66
2022/08/05 11:26:08;;;;;;;2.10;0.50;;;23.80;38.00;;;;;;5126703;27;20039;-67
2022/08/05 11:28:34;;;;;;;5.28;0.77;;;23.90;38.50;;;;;;5125725;28;20054;-67
2022/08/05 11:31:00;;;;;;;4.60;0.80;;;24.30;38.60;;;;;;5125805;28;20031;-69
2022/08/05 11:33:31;;;;;;;3.97;0.88;;;24.70;38.40;;;;;;5125264;28;20042;-67
2022/08/05 11:36:09;;;;;;;4.15;0.70;;;24.90;38.40;;;;;;5125262;28;20129;-67
2022/08/05 11:38:38;;;;;;;5.10;0.90;;;24.80;38.80;;;;;;5126784;27;20032;-67
2022/08/05 11:41:13;;;;;;;4.53;0.80;;;24.70;37.90;;;;;;5126807;28;20494;-67
2022/08/05 11:44:02;;;;;;;4.05;0.68;;;24.60;38.10;;;;;;5126786;27;20058;-67
2022/08/05 11:46:31;;;;;;;4.60;0.85;;;24.60;38.10;;;;;;5125846;28;20077;-67
2022/08/05 11:48:58;;;;;;;3.35;0.73;;;24.70;38.00;;;;;;5126471;28;20027;-67
2022/08/05 11:51:25;;;;;;;4.28;0.90;;;24.90;37.10;;;;;;5124824;28;20471;-67
2022/08/05 11:53:52;;;;;;;3.20;0.80;;;25.10;37.50;;;;;;5124977;28;20023;-67
2022/08/05 11:56:17;;;;;;;6.05;0.88;;;25.10;38.00;;;;;;5126442;27;20062;-67
2022/08/05 11:58:45;;;;;;;3.60;0.65;;;25.10;37.90;;;;;;5126172;28;20629;-66
2022/08/05 12:01:14;;;;;;;3.67;0.80;;;25.10;37.80;;;;;;5124627;28;20405;-67
2022/08/05 12:03:45;;;;;;;3.72;0.80;;;25.10;37.50;;;;;;5121599;28;20092;-67
2022/08/05 12:06:12;;;;;;;4.50;1.00;;;25.10;37.40;;;;;;5104378;28;20039;-67
2022/08/05 12:08:58;;;;;;;3.97;0.80;;;25.20;37.50;;;;;;5105281;28;20032;-69
2022/08/05 12:11:29;;;;;;;5.28;0.90;;;25.70;36.10;;;;;;5105088;28;20032;-67
2022/08/05 12:13:58;;;;;;;3.10;0.90;;;26.50;35.40;;;;;;5104150;28;20556;-66
2022/08/05 12:16:26;;;;;;;3.00;0.75;;;26.90;34.70;;;;;;5104009;28;20083;-67
2022/08/05 12:18:52;;;;;;;4.53;0.80;;;27.00;35.20;;;;;;5105688;28;20031;-67
2022/08/05 12:21:21;;;;;;;2.58;0.80;;;26.90;34.30;;;;;;5103848;28;20053;-67
2022/08/05 12:23:53;;;;;;;5.00;0.80;;;26.90;35.50;;;;;;5104966;28;20035;-67
2022/08/05 12:26:19;;;;;;;2.38;0.60;;;26.60;35.00;;;;;;5105089;28;20039;-67
2022/08/05 12:28:44;;;;;;;4.22;0.88;;;26.50;34.50;;;;;;5093810;28;20039;-67
2022/08/05 12:31:10;;;;;;;4.35;0.73;;;26.40;35.00;;;;;;5089940;28;20055;-68
2022/08/05 12:33:36;;;;;;;5.15;1.05;;;26.50;34.40;;;;;;5091697;28;20119;-68
2022/08/05 12:36:04;;;;;;;5.10;0.90;;;26.50;33.70;;;;;;5106940;28;20409;-68
2022/08/05 12:38:30;;;;;;;3.95;0.80;;;26.70;33.90;;;;;;5089979;28;20037;-68
2022/08/05 12:40:56;;;;;;;5.53;1.02;;;27.50;34.50;;;;;;5091314;28;20402;-67
2022/08/05 12:43:22;;;;;;;5.43;0.88;;;27.00;33.70;;;;;;5091477;28;20032;-67
2022/08/05 12:45:55;;;;;;;1.80;0.60;;;26.50;34.50;;;;;;5091135;28;20062;-67
2022/08/05 12:48:22;;;;;;;4.75;0.75;;;26.20;34.90;;;;;;5091205;28;20050;-68
2022/08/05 12:51:16;;;;;;;3.90;0.50;;;26.10;35.20;;;;;;5089812;28;20032;-68
2022/08/05 12:53:43;;;;;;;3.38;0.60;;;25.80;35.00;;;;;;5091205;28;20046;-68
2022/08/05 12:56:40;;;;;;;5.07;0.65;;;25.60;35.40;;;;;;5091136;28;20039;-68
2022/08/05 12:59:26;;;;;;;3.38;0.52;;;25.40;34.90;;;;;;5090022;28;20475;-68
2022/08/05 13:01:55;;;;;;;3.22;0.68;;;25.30;35.70;;;;;;5089569;28;20028;-68